createdAt,value
2023-05-19T00:01:00.572Z,10.40
2023-05-19T00:03:28.157Z,10.30
2023-05-19T00:05:57.381Z,10.40
2023-05-19T00:08:24.949Z,10.40
2023-05-19T00:10:52.314Z,10.30
2023-05-19T00:13:19.835Z,10.30
2023-05-19T00:15:47.403Z,10.40
2023-05-19T00:18:14.613Z,10.30
2023-05-19T00:20:41.760Z,10.30
2023-05-19T00:23:09.075Z,10.30
2023-05-19T00:25:36.278Z,10.30
2023-05-19T00:28:03.718Z,10.30
2023-05-19T00:30:32.423Z,10.30
2023-05-19T00:33:02.681Z,10.30
2023-05-19T00:35:29.811Z,10.30
2023-05-19T00:37:57.217Z,10.30
2023-05-19T00:40:25.753Z,10.20
2023-05-19T00:42:52.815Z,10.30
2023-05-19T00:45:19.967Z,10.20
2023-05-19T00:47:47.072Z,10.20
2023-05-19T00:50:14.121Z,10.20
2023-05-19T00:52:41.178Z,10.20
2023-05-19T00:55:09.827Z,10.20
2023-05-19T00:57:38.400Z,10.20
2023-05-19T01:00:07.131Z,10.20
2023-05-19T01:02:35.093Z,10.20
2023-05-19T01:05:02.877Z,10.10
2023-05-19T01:07:30.454Z,10.10
2023-05-19T01:09:58.053Z,10.10
2023-05-19T01:12:26.549Z,10.10
2023-05-19T01:14:53.689Z,10.10
2023-05-19T01:17:35.991Z,10.10
2023-05-19T01:20:22.745Z,10.10
2023-05-19T01:23:36.706Z,10.00
2023-05-19T01:26:27.835Z,10.00
2023-05-19T01:29:21.043Z,10.00
2023-05-19T01:31:50.447Z,10.00
2023-05-19T01:36:49.856Z,10.00
2023-05-19T01:39:17.268Z,10.00
2023-05-19T01:41:45.827Z,9.90
2023-05-19T01:44:13.173Z,9.90
2023-05-19T01:46:40.750Z,9.90
2023-05-19T01:49:09.041Z,9.90
2023-05-19T01:51:36.263Z,9.80
2023-05-19T01:54:03.420Z,9.80
2023-05-19T01:56:49.917Z,9.80
2023-05-19T02:00:15.709Z,9.80
2023-05-19T02:02:55.811Z,9.80
2023-05-19T02:05:31.311Z,9.80
2023-05-19T02:08:20.681Z,9.80
2023-05-19T02:10:56.211Z,9.80
2023-05-19T02:13:27.356Z,9.80
2023-05-19T02:16:02.508Z,9.80
2023-05-19T02:18:30.102Z,9.80
2023-05-19T02:20:57.153Z,9.80
2023-05-19T02:23:24.174Z,9.90
2023-05-19T02:25:51.504Z,9.90
2023-05-19T02:28:18.855Z,9.80
2023-05-19T02:30:46.006Z,9.90
2023-05-19T02:33:13.068Z,9.90
2023-05-19T02:35:40.120Z,9.80
2023-05-19T02:38:07.150Z,9.90
2023-05-19T02:40:34.320Z,9.90
2023-05-19T02:43:01.845Z,9.80
2023-05-19T02:45:29.275Z,9.80
2023-05-19T02:47:56.888Z,9.80
2023-05-19T02:50:23.917Z,9.80
2023-05-19T02:52:52.564Z,9.80
2023-05-19T02:55:19.858Z,9.80
2023-05-19T02:57:46.972Z,9.80
2023-05-19T03:00:14.934Z,9.80
2023-05-19T03:02:44.091Z,9.80
2023-05-19T03:05:11.452Z,9.80
2023-05-19T03:07:38.630Z,9.80
2023-05-19T03:10:06.843Z,9.80
2023-05-19T03:12:33.914Z,9.80
2023-05-19T03:15:01.494Z,9.80
2023-05-19T03:17:33.631Z,9.80
2023-05-19T03:20:01.688Z,9.80
2023-05-19T03:22:28.810Z,9.80
2023-05-19T03:24:55.940Z,9.80
2023-05-19T03:27:23.003Z,9.80
2023-05-19T03:29:50.776Z,9.80
2023-05-19T03:32:17.863Z,9.80
2023-05-19T03:34:44.941Z,9.80
2023-05-19T03:37:12.951Z,9.80
2023-05-19T03:39:40.008Z,9.80
2023-05-19T03:42:07.203Z,9.80
2023-05-19T03:44:34.367Z,9.80
2023-05-19T03:47:01.406Z,9.80
2023-05-19T03:49:28.465Z,9.90
2023-05-19T03:51:55.926Z,9.90
2023-05-19T03:54:23.267Z,9.90
2023-05-19T03:56:50.383Z,9.90
2023-05-19T03:59:17.448Z,9.90
2023-05-19T04:01:44.553Z,9.90
2023-05-19T04:04:11.635Z,10.00
2023-05-19T04:06:41.671Z,10.00
2023-05-19T04:09:14.191Z,10.00
2023-05-19T04:11:42.677Z,10.00
2023-05-19T04:14:10.048Z,10.00
2023-05-19T04:16:37.530Z,10.00
2023-05-19T04:19:04.696Z,10.00
2023-05-19T04:21:31.892Z,10.00
2023-05-19T04:24:00.079Z,10.00
2023-05-19T04:26:30.956Z,10.00
2023-05-19T04:28:58.187Z,10.00
2023-05-19T04:31:25.632Z,10.00
2023-05-19T04:33:53.520Z,10.00
2023-05-19T04:36:21.756Z,10.00
2023-05-19T04:38:49.034Z,10.00
2023-05-19T04:41:16.547Z,10.10
2023-05-19T04:43:44.629Z,10.00
2023-05-19T04:46:13.955Z,10.00
2023-05-19T04:48:41.398Z,10.00
2023-05-19T04:51:08.654Z,10.10
2023-05-19T04:53:36.611Z,10.10
2023-05-19T04:56:04.450Z,10.10
2023-05-19T04:58:31.623Z,10.10
2023-05-19T05:00:58.771Z,10.10
2023-05-19T05:03:27.387Z,10.20
2023-05-19T05:05:54.541Z,10.20
2023-05-19T05:08:25.488Z,10.20
2023-05-19T05:10:53.727Z,10.20
2023-05-19T05:13:24.072Z,10.20
2023-05-19T05:15:52.740Z,10.30
2023-05-19T05:18:20.577Z,10.30
2023-05-19T05:20:48.896Z,10.30
2023-05-19T05:23:16.775Z,10.40
2023-05-19T05:25:44.855Z,10.50
2023-05-19T05:28:12.060Z,10.50
2023-05-19T05:30:39.180Z,10.50
2023-05-19T05:33:06.622Z,10.60
2023-05-19T05:35:34.206Z,10.60
2023-05-19T05:38:02.799Z,10.70
2023-05-19T05:40:30.144Z,10.70
2023-05-19T05:42:59.071Z,10.80
2023-05-19T05:45:26.487Z,10.80
2023-05-19T05:47:53.890Z,10.80
2023-05-19T05:50:21.471Z,10.90
2023-05-19T05:52:50.966Z,11.00
2023-05-19T05:55:18.588Z,11.00
2023-05-19T05:57:45.656Z,11.10
2023-05-19T06:00:15.820Z,11.10
2023-05-19T06:02:47.401Z,11.20
2023-05-19T06:05:14.785Z,11.30
2023-05-19T06:07:42.066Z,11.30
2023-05-19T06:10:10.128Z,11.40
2023-05-19T06:12:40.619Z,11.40
2023-05-19T06:15:08.459Z,11.40
2023-05-19T06:17:36.210Z,11.50
2023-05-19T06:20:08.624Z,11.50
2023-05-19T06:22:36.245Z,11.50
2023-05-19T06:25:03.699Z,11.60
2023-05-19T06:27:32.563Z,11.70
2023-05-19T06:30:01.255Z,11.70
2023-05-19T06:32:29.840Z,11.80
2023-05-19T06:34:57.113Z,11.80
2023-05-19T06:37:24.565Z,11.80
2023-05-19T06:39:53.724Z,11.90
2023-05-19T06:42:22.667Z,11.90
2023-05-19T06:44:50.603Z,11.90
2023-05-19T06:47:18.300Z,11.90
2023-05-19T06:49:50.664Z,11.90
2023-05-19T06:52:18.094Z,12.00
2023-05-19T06:54:45.212Z,12.00
2023-05-19T06:57:12.257Z,12.10
2023-05-19T06:59:41.207Z,12.10
2023-05-19T07:02:08.529Z,12.10
2023-05-19T07:04:36.746Z,12.10
2023-05-19T07:07:04.104Z,12.20
2023-05-19T07:09:31.182Z,12.20
2023-05-19T07:11:58.370Z,12.20
2023-05-19T07:14:25.458Z,12.30
2023-05-19T07:16:52.727Z,12.40
2023-05-19T07:19:20.197Z,12.40
2023-05-19T07:21:48.097Z,12.40
2023-05-19T07:24:15.170Z,12.50
2023-05-19T07:26:42.892Z,12.50
2023-05-19T07:29:09.946Z,12.60
2023-05-19T07:31:37.047Z,12.60
2023-05-19T07:34:04.409Z,12.70
2023-05-19T07:36:31.753Z,12.80
2023-05-19T07:38:58.908Z,12.80
2023-05-19T07:41:26.333Z,12.80
2023-05-19T07:43:53.392Z,12.90
2023-05-19T07:46:22.154Z,12.90
2023-05-19T07:48:49.444Z,13.00
2023-05-19T07:51:16.551Z,13.10
2023-05-19T07:53:43.591Z,13.20
2023-05-19T07:56:10.874Z,13.20
2023-05-19T07:58:38.038Z,13.20
2023-05-19T08:01:05.232Z,13.30
2023-05-19T08:03:32.527Z,13.30
2023-05-19T08:05:59.853Z,13.30
2023-05-19T08:08:27.003Z,13.30
2023-05-19T08:10:54.032Z,13.30
2023-05-19T08:13:21.858Z,13.40
2023-05-19T08:15:48.956Z,13.40
2023-05-19T08:18:16.130Z,13.50
2023-05-19T08:20:43.167Z,13.50
2023-05-19T08:23:10.208Z,13.60
2023-05-19T08:25:37.264Z,13.70
2023-05-19T08:28:04.474Z,13.70
2023-05-19T08:30:31.738Z,13.80
2023-05-19T08:32:59.038Z,13.80
2023-05-19T08:35:26.244Z,13.80
2023-05-19T08:37:53.587Z,13.80
2023-05-19T08:40:21.120Z,13.90
2023-05-19T08:42:48.471Z,13.90
2023-05-19T08:45:16.131Z,13.90
2023-05-19T08:47:49.069Z,13.90
2023-05-19T08:50:30.661Z,13.90
2023-05-19T08:53:32.324Z,14.00
2023-05-19T08:56:11.051Z,14.00
2023-05-19T08:58:43.934Z,14.00
2023-05-19T09:01:16.782Z,14.00
2023-05-19T09:03:50.521Z,14.10
2023-05-19T09:08:45.365Z,14.20
2023-05-19T09:11:13.170Z,14.20
2023-05-19T09:13:40.388Z,14.30
2023-05-19T09:16:08.329Z,14.30
2023-05-19T09:18:40.788Z,14.40
2023-05-19T09:21:10.248Z,14.40
2023-05-19T09:23:37.674Z,14.50
2023-05-19T09:26:08.822Z,14.60
2023-05-19T09:28:37.851Z,14.70
2023-05-19T09:31:12.040Z,14.80
2023-05-19T09:33:45.991Z,14.80
2023-05-19T09:38:41.478Z,15.00
2023-05-19T09:41:09.461Z,15.10
2023-05-19T09:43:36.941Z,15.10
2023-05-19T09:46:08.127Z,15.20
2023-05-19T09:48:36.607Z,15.30
2023-05-19T09:51:07.729Z,15.50
2023-05-19T09:53:35.321Z,15.60
2023-05-19T09:56:04.037Z,15.70
2023-05-19T09:58:35.422Z,15.80
2023-05-19T10:01:04.671Z,15.80
2023-05-19T10:03:35.152Z,15.80
2023-05-19T10:06:04.592Z,15.90
2023-05-19T10:08:34.261Z,16.00
2023-05-19T10:11:01.944Z,15.90
2023-05-19T10:13:30.937Z,15.90
2023-05-19T10:15:59.963Z,16.00
2023-05-19T10:18:29.941Z,16.00
2023-05-19T10:20:59.010Z,16.10
2023-05-19T10:23:26.955Z,16.20
2023-05-19T10:25:58.598Z,16.40
2023-05-19T10:28:35.084Z,16.60
2023-05-19T10:31:06.923Z,16.70
2023-05-19T10:34:22.194Z,16.90
2023-05-19T10:37:10.551Z,17.10
2023-05-19T10:39:44.441Z,17.30
2023-05-19T10:42:26.298Z,17.40
2023-05-19T10:45:17.560Z,17.50
2023-05-19T10:47:45.673Z,17.60
2023-05-19T10:50:13.803Z,17.70
2023-05-19T10:52:41.374Z,18.00
2023-05-19T10:55:10.280Z,18.10
2023-05-19T10:57:37.717Z,18.30
2023-05-19T11:00:29.510Z,18.40
2023-05-19T11:03:13.761Z,18.30
2023-05-19T11:05:41.417Z,18.30
2023-05-19T11:08:08.630Z,18.20
2023-05-19T11:10:35.818Z,18.10
2023-05-19T11:13:06.631Z,18.10
2023-05-19T11:15:37.392Z,18.20
2023-05-19T11:18:05.214Z,18.10
2023-05-19T11:20:35.062Z,18.00
2023-05-19T11:23:11.076Z,18.00
2023-05-19T11:25:49.738Z,17.90
2023-05-19T11:28:20.573Z,17.80
2023-05-19T11:30:52.141Z,17.90
2023-05-19T11:33:21.629Z,17.80
2023-05-19T11:35:51.460Z,17.90
2023-05-19T11:38:23.622Z,17.90
2023-05-19T11:40:54.139Z,17.90
2023-05-19T11:43:25.424Z,18.00
2023-05-19T11:45:54.545Z,18.10
2023-05-19T11:48:22.619Z,18.30
2023-05-19T11:50:53.024Z,18.60
2023-05-19T11:53:21.033Z,18.80
2023-05-19T11:55:49.411Z,18.80
2023-05-19T11:58:17.570Z,18.90
2023-05-19T12:00:47.472Z,19.10
2023-05-19T12:03:15.234Z,19.20
2023-05-19T12:05:48.748Z,19.20
2023-05-19T12:08:19.156Z,19.10
2023-05-19T12:10:52.137Z,19.00
2023-05-19T12:13:21.007Z,18.80
2023-05-19T12:15:50.357Z,18.60
2023-05-19T12:18:17.480Z,18.50
2023-05-19T12:20:44.904Z,18.50
2023-05-19T12:23:12.677Z,18.50
2023-05-19T12:25:40.088Z,18.50
2023-05-19T12:28:07.819Z,18.60
2023-05-19T12:30:35.518Z,18.70
2023-05-19T12:33:03.409Z,18.70
2023-05-19T12:35:36.103Z,18.90
2023-05-19T12:38:05.418Z,19.10
2023-05-19T12:40:37.747Z,19.10
2023-05-19T12:43:06.790Z,19.30
2023-05-19T12:45:37.451Z,19.50
2023-05-19T12:48:16.603Z,19.80
2023-05-19T12:50:45.150Z,19.90
2023-05-19T12:53:14.621Z,19.90
2023-05-19T12:55:44.332Z,20.10
2023-05-19T12:58:12.893Z,20.20
2023-05-19T13:00:47.354Z,20.30
2023-05-19T13:03:22.307Z,20.40
2023-05-19T13:05:51.345Z,20.40
2023-05-19T13:08:21.670Z,20.30
2023-05-19T13:10:49.690Z,20.20
2023-05-19T13:13:17.645Z,20.10
2023-05-19T13:15:49.117Z,20.20
2023-05-19T13:18:17.433Z,20.20
2023-05-19T13:20:47.104Z,20.10
2023-05-19T13:23:14.975Z,20.00
2023-05-19T13:25:42.987Z,19.90
2023-05-19T13:28:10.957Z,19.80
2023-05-19T13:30:40.861Z,19.80
2023-05-19T13:33:08.280Z,19.80
2023-05-19T13:35:38.852Z,19.80
2023-05-19T13:38:10.597Z,20.00
2023-05-19T13:40:39.493Z,20.50
2023-05-19T13:43:07.364Z,20.80
2023-05-19T13:45:34.753Z,21.20
2023-05-19T13:48:01.902Z,21.50
2023-05-19T13:50:29.251Z,21.70
2023-05-19T13:52:56.367Z,21.90
2023-05-19T13:55:23.638Z,21.90
2023-05-19T13:57:50.993Z,21.90
2023-05-19T14:00:19.352Z,21.90
2023-05-19T14:02:46.714Z,21.80
2023-05-19T14:05:13.878Z,21.70
2023-05-19T14:07:41.361Z,21.60
2023-05-19T14:10:09.337Z,21.80
2023-05-19T14:12:47.835Z,21.80
2023-05-19T14:15:23.855Z,21.70
2023-05-19T14:17:51.059Z,21.80
2023-05-19T14:20:18.228Z,21.70
2023-05-19T14:22:45.354Z,21.70
2023-05-19T14:25:12.463Z,21.70
2023-05-19T14:27:42.698Z,21.70
2023-05-19T14:30:10.501Z,21.70
2023-05-19T14:32:37.631Z,21.80
2023-05-19T14:35:05.484Z,21.90
2023-05-19T14:37:32.671Z,22.00
2023-05-19T14:40:00.027Z,22.00
2023-05-19T14:42:27.144Z,22.10
2023-05-19T14:44:54.309Z,22.20
2023-05-19T14:47:21.506Z,22.30
2023-05-19T14:49:48.702Z,22.40
2023-05-19T14:52:15.783Z,22.50
2023-05-19T14:54:42.855Z,22.60
2023-05-19T14:57:09.923Z,22.70
2023-05-19T14:59:40.066Z,22.80
2023-05-19T15:02:07.662Z,22.90
2023-05-19T15:04:34.758Z,22.80
2023-05-19T15:09:32.040Z,23.00
2023-05-19T15:12:01.207Z,23.00
2023-05-19T15:14:30.529Z,23.10
2023-05-19T15:16:58.544Z,23.20
2023-05-19T15:19:26.073Z,23.30
2023-05-19T15:21:53.512Z,23.40
2023-05-19T15:24:20.733Z,23.50
2023-05-19T15:26:47.987Z,23.60
2023-05-19T15:29:15.108Z,23.60
2023-05-19T15:31:42.321Z,23.60
2023-05-19T15:34:09.500Z,23.60
2023-05-19T15:36:36.589Z,23.50
2023-05-19T15:39:03.831Z,23.20
2023-05-19T15:41:30.975Z,22.80
2023-05-19T15:44:00.329Z,22.40
2023-05-19T15:46:31.065Z,22.10
2023-05-19T15:48:58.365Z,21.80
2023-05-19T15:51:26.307Z,21.70
2023-05-19T15:53:53.554Z,21.50
2023-05-19T15:56:21.563Z,21.40
2023-05-19T15:58:48.752Z,21.40
2023-05-19T16:01:16.803Z,21.30
2023-05-19T16:03:45.385Z,21.10
2023-05-19T16:06:12.683Z,21.10
2023-05-19T16:08:39.906Z,21.00
2023-05-19T16:11:07.115Z,20.90
2023-05-19T16:13:34.459Z,20.80
2023-05-19T16:16:02.190Z,20.70
2023-05-19T16:18:29.602Z,20.50
2023-05-19T16:20:56.731Z,20.40
2023-05-19T16:23:24.798Z,20.30
2023-05-19T16:25:52.327Z,20.10
2023-05-19T16:28:19.522Z,20.00
2023-05-19T16:30:46.788Z,19.90
2023-05-19T16:33:13.978Z,19.70
2023-05-19T16:35:41.068Z,19.60
2023-05-19T16:38:08.199Z,19.60
2023-05-19T16:40:35.722Z,19.50
2023-05-19T16:43:03.090Z,19.40
2023-05-19T16:45:30.146Z,19.30
2023-05-19T16:47:57.321Z,19.30
2023-05-19T16:52:51.862Z,19.10
2023-05-19T16:55:20.097Z,19.00
2023-05-19T16:57:47.431Z,18.90
2023-05-19T17:00:15.509Z,18.80
2023-05-19T17:02:42.661Z,18.80
2023-05-19T17:05:09.919Z,18.70
2023-05-19T17:07:37.006Z,18.60
2023-05-19T17:10:04.545Z,18.60
2023-05-19T17:12:31.654Z,18.50
2023-05-19T17:14:58.735Z,18.50
2023-05-19T17:17:25.919Z,18.50
2023-05-19T17:19:53.048Z,18.40
2023-05-19T17:22:20.152Z,18.40
2023-05-19T17:24:47.336Z,18.30
2023-05-19T17:27:15.105Z,18.30
2023-05-19T17:29:42.245Z,18.20
2023-05-19T17:32:09.484Z,18.20
2023-05-19T17:34:36.695Z,18.20
2023-05-19T17:37:04.057Z,18.10
2023-05-19T17:39:31.209Z,18.10
2023-05-19T17:41:58.438Z,18.00
2023-05-19T17:44:25.668Z,18.00
2023-05-19T17:46:53.060Z,18.00
2023-05-19T17:49:23.066Z,17.90
2023-05-19T17:51:50.508Z,17.90
2023-05-19T17:54:18.029Z,17.80
2023-05-19T17:56:45.902Z,17.70
2023-05-19T17:59:13.513Z,17.70
2023-05-19T18:01:41.373Z,17.60
2023-05-19T18:04:09.622Z,17.60
2023-05-19T18:06:44.701Z,17.50
2023-05-19T18:09:15.760Z,17.40
2023-05-19T18:11:43.144Z,17.40
2023-05-19T18:14:10.870Z,17.30
2023-05-19T18:16:38.744Z,17.30
2023-05-19T18:19:06.748Z,17.20
2023-05-19T18:21:34.814Z,17.20
2023-05-19T18:24:04.786Z,17.10
2023-05-19T18:26:34.088Z,17.00
2023-05-19T18:29:05.367Z,16.90
2023-05-19T18:31:33.349Z,16.90
2023-05-19T18:34:01.467Z,16.80
2023-05-19T18:36:29.730Z,16.70
2023-05-19T18:38:59.833Z,16.60
2023-05-19T18:41:28.081Z,16.60
2023-05-19T18:43:56.058Z,16.50
2023-05-19T18:46:24.120Z,16.50
2023-05-19T18:48:52.140Z,16.40
2023-05-19T18:51:21.839Z,16.40
2023-05-19T18:53:50.691Z,16.30
2023-05-19T18:56:31.733Z,16.30
2023-05-19T18:59:00.342Z,16.20
2023-05-19T19:01:29.015Z,16.20
2023-05-19T19:03:57.310Z,16.10
2023-05-19T19:06:25.227Z,16.10
2023-05-19T19:08:53.228Z,16.10
2023-05-19T19:11:22.317Z,16.00
2023-05-19T19:13:56.039Z,16.00
2023-05-19T19:16:24.103Z,15.90
2023-05-19T19:18:53.436Z,15.90
2023-05-19T19:21:24.551Z,15.90
2023-05-19T19:23:56.709Z,15.80
2023-05-19T19:26:28.008Z,15.80
2023-05-19T19:28:57.474Z,15.70
2023-05-19T19:31:31.714Z,15.70
2023-05-19T19:34:03.704Z,15.60
2023-05-19T19:36:32.690Z,15.50
2023-05-19T19:39:00.913Z,15.50
2023-05-19T19:41:30.381Z,15.50
2023-05-19T19:44:01.113Z,15.40
2023-05-19T19:46:29.224Z,15.40
2023-05-19T19:49:00.870Z,15.30
2023-05-19T19:51:29.590Z,15.30
2023-05-19T19:53:57.796Z,15.30
2023-05-19T19:56:28.013Z,15.30
2023-05-19T19:58:59.130Z,15.20
2023-05-19T20:01:28.222Z,15.20
2023-05-19T20:03:58.041Z,15.20
2023-05-19T20:06:26.570Z,15.10
2023-05-19T20:08:54.690Z,15.10
2023-05-19T20:11:24.869Z,15.10
2023-05-19T20:13:56.014Z,15.00
2023-05-19T20:16:24.747Z,15.00
2023-05-19T20:18:52.959Z,15.00
2023-05-19T20:21:21.223Z,14.90
2023-05-19T20:23:51.024Z,14.90
2023-05-19T20:26:19.155Z,14.90
2023-05-19T20:28:47.344Z,14.80
2023-05-19T20:31:15.420Z,14.80
2023-05-19T20:33:43.449Z,14.80
2023-05-19T20:36:11.688Z,14.70
2023-05-19T20:38:39.643Z,14.70
2023-05-19T20:41:08.001Z,14.70
2023-05-19T20:43:35.846Z,14.70
2023-05-19T20:46:04.735Z,14.60
2023-05-19T20:48:32.539Z,14.60
2023-05-19T20:51:00.304Z,14.60
2023-05-19T20:53:28.028Z,14.50
2023-05-19T20:55:55.605Z,14.50
2023-05-19T20:58:23.205Z,14.50
2023-05-19T21:00:56.950Z,14.50
2023-05-19T21:03:25.370Z,14.40
2023-05-19T21:05:53.528Z,14.40
2023-05-19T21:08:20.819Z,14.40
2023-05-19T21:10:48.118Z,14.40
2023-05-19T21:13:15.353Z,14.30
2023-05-19T21:15:42.387Z,14.20
2023-05-19T21:18:11.579Z,14.20
2023-05-19T21:20:39.631Z,14.20
2023-05-19T21:23:06.735Z,14.10
2023-05-19T21:25:33.859Z,14.10
2023-05-19T21:28:01.104Z,14.10
2023-05-19T21:30:28.544Z,14.00
2023-05-19T21:32:55.721Z,14.00
2023-05-19T21:35:22.844Z,14.00
2023-05-19T21:37:49.916Z,14.00
2023-05-19T21:40:16.956Z,14.00
2023-05-19T21:42:44.039Z,13.90
2023-05-19T21:45:11.638Z,13.90
2023-05-19T21:47:38.921Z,13.90
2023-05-19T21:50:07.122Z,13.80
2023-05-19T21:52:36.094Z,13.80
2023-05-19T21:55:03.495Z,13.80
2023-05-19T21:57:30.656Z,13.80
2023-05-19T21:59:57.702Z,13.80
2023-05-19T22:02:25.032Z,13.70
2023-05-19T22:04:52.249Z,13.70
2023-05-19T22:07:26.649Z,13.70
2023-05-19T22:09:54.161Z,13.70
2023-05-19T22:12:21.551Z,13.60
2023-05-19T22:14:48.732Z,13.60
2023-05-19T22:17:15.834Z,13.60
2023-05-19T22:19:42.889Z,13.60
2023-05-19T22:22:14.146Z,13.60
2023-05-19T22:24:41.862Z,13.50
2023-05-19T22:27:09.007Z,13.50
2023-05-19T22:29:38.677Z,13.50
2023-05-19T22:32:11.696Z,13.50
2023-05-19T22:34:39.279Z,13.50
2023-05-19T22:37:06.630Z,13.40
2023-05-19T22:39:33.718Z,13.40
2023-05-19T22:42:01.297Z,13.40
2023-05-19T22:44:28.587Z,13.30
2023-05-19T22:46:55.803Z,13.30
2023-05-19T22:49:27.406Z,13.30
2023-05-19T22:51:54.565Z,13.30
2023-05-19T22:54:21.599Z,13.30
2023-05-19T22:56:49.049Z,13.30
2023-05-19T22:59:18.017Z,13.20
2023-05-19T23:01:46.636Z,13.20
2023-05-19T23:04:14.251Z,13.20
2023-05-19T23:06:41.452Z,13.20
2023-05-19T23:09:08.469Z,13.20
2023-05-19T23:11:36.020Z,13.20
2023-05-19T23:14:03.147Z,13.20
2023-05-19T23:16:30.222Z,13.20
2023-05-19T23:18:57.370Z,13.20
2023-05-19T23:21:24.497Z,13.20
2023-05-19T23:23:51.964Z,13.20
2023-05-19T23:26:19.030Z,13.20
2023-05-19T23:29:04.538Z,13.10
2023-05-19T23:31:31.645Z,13.10
2023-05-19T23:34:03.138Z,13.10
2023-05-19T23:36:31.426Z,13.10
2023-05-19T23:39:00.128Z,13.00
2023-05-19T23:41:27.330Z,13.10
2023-05-19T23:43:54.478Z,13.10
2023-05-19T23:46:21.633Z,13.00
2023-05-19T23:48:48.911Z,13.10
2023-05-19T23:51:15.957Z,13.10
2023-05-19T23:53:43.047Z,13.10
2023-05-19T23:56:11.326Z,13.10
2023-05-19T23:58:38.546Z,13.10
